METAR Data
IDs: Format: Raw Decoded Include TAF

Data at: 0237 UTC 10 Dec 2022

METAR for:KFWA (Fort Wayne Intl, IN, US)
Text:KFWA 100221Z 05011KT 10SM OVC009 02/00 A3021 RMK AO2 T00170000
Temperature: 1.7°C ( 35°F)
Dewpoint: 0.0°C ( 32°F) [RH = 88%]
Pressure (altimeter):30.21 inches Hg (1023.1 mb)
Winds:from the NE (50 degrees) at 13 MPH (11 knots; 5.7 m/s)
Visibility:10 or more sm (16+ km)
Ceiling:900 feet AGL
Clouds: overcast cloud deck at 900 feet AGL